EWG8YX LEVC-EDDS
Flight info
| Callsign | EWG8YX |
|---|---|
| Flight time | 1h 41m |
| Altitude | 34000 |
| Route | SOPET M985 BCN N870 DIBER DCT ADITA DCT MAXIR DCT LUSOL DCT BODRU DCT OKTET DCT IRMAR DCT KINES DCT VANAS DCT MOBLO DCT LAMUR DCT KORED N871 DITON T163 ZUE T125 REUTL REUTL1W |
| Aircraft | A320/M-SDE3FGHIRWY/LB1 |
Departure
| Time | 2026-05-04 09:08 |
|---|---|
| Airport | Valencia Airport (LEVC) |
Arrival
| Time | 2026-05-04 10:50 |
|---|---|
| Airport | Stuttgart Airport (EDDS) |
| Time | Latitude | Longitude | Altitude | Speed | Heading |
|---|---|---|---|---|---|
| 2026-05-04 08:37 | 39.49066 | -0.47440 | 209 ft | 0 kts | 39° |
| 2026-05-04 09:01 | 39.49024 | -0.47543 | 209 ft | 0 kts | 116° |
| 2026-05-04 09:03 | 39.49011 | -0.47508 | 211 ft | 12 kts | 116° |
| 2026-05-04 09:04 | 39.48971 | -0.47404 | 213 ft | 13 kts | 116° |
| 2026-05-04 09:04 | 39.48935 | -0.47309 | 211 ft | 11 kts | 116° |
| 2026-05-04 09:04 | 39.48889 | -0.47244 | 212 ft | 10 kts | 153° |
| 2026-05-04 09:04 | 39.48799 | -0.47194 | 213 ft | 18 kts | 156° |
| 2026-05-04 09:05 | 39.48719 | -0.47072 | 210 ft | 19 kts | 116° |
| 2026-05-04 09:05 | 39.48658 | -0.46911 | 209 ft | 21 kts | 116° |
| 2026-05-04 09:05 | 39.48609 | -0.46804 | 209 ft | 3 kts | 126° |
| 2026-05-04 09:05 | 39.48600 | -0.46788 | 214 ft | 2 kts | 128° |
| 2026-05-04 09:06 | 39.48573 | -0.46748 | 209 ft | 12 kts | 134° |
| 2026-05-04 09:07 | 39.49092 | -0.48580 | 215 ft | 162 kts | 297° |
| 2026-05-04 09:08 | 39.49601 | -0.49854 | 833 ft | 158 kts | 298° |
| 2026-05-04 09:08 | 39.50123 | -0.51106 | 1470 ft | 161 kts | 297° |
| 2026-05-04 09:08 | 39.50684 | -0.52456 | 1906 ft | 178 kts | 297° |
| 2026-05-04 09:08 | 39.51287 | -0.53911 | 2403 ft | 191 kts | 297° |
| 2026-05-04 09:09 | 39.51946 | -0.55492 | 2838 ft | 205 kts | 297° |
| 2026-05-04 09:09 | 39.52753 | -0.57027 | 3455 ft | 209 kts | 312° |
| 2026-05-04 09:09 | 39.53909 | -0.58211 | 3977 ft | 219 kts | 328° |
| 2026-05-04 09:09 | 39.55376 | -0.58889 | 4603 ft | 228 kts | 349° |
| 2026-05-04 09:10 | 39.56986 | -0.58893 | 5298 ft | 237 kts | 8° |
| 2026-05-04 09:10 | 39.58559 | -0.58142 | 5992 ft | 247 kts | 30° |
| 2026-05-04 09:10 | 39.59864 | -0.56662 | 6679 ft | 254 kts | 53° |
| 2026-05-04 09:10 | 39.60658 | -0.54604 | 7336 ft | 259 kts | 76° |
| 2026-05-04 09:11 | 39.61118 | -0.52322 | 7953 ft | 270 kts | 77° |
| 2026-05-04 09:11 | 39.61604 | -0.49867 | 8292 ft | 292 kts | 77° |
| 2026-05-04 09:11 | 39.62122 | -0.47259 | 8900 ft | 303 kts | 77° |
| 2026-05-04 09:11 | 39.62658 | -0.44586 | 9648 ft | 309 kts | 78° |
| 2026-05-04 09:12 | 39.63208 | -0.41857 | 10243 ft | 322 kts | 78° |
| 2026-05-04 09:12 | 39.63791 | -0.38946 | 10482 ft | 345 kts | 78° |
| 2026-05-04 09:14 | 39.71147 | -0.16057 | 13575 ft | 427 kts | 42° |
| 2026-05-04 09:14 | 39.73297 | -0.13356 | 14124 ft | 432 kts | 42° |
| 2026-05-04 09:14 | 39.75461 | -0.10616 | 14685 ft | 436 kts | 43° |
| 2026-05-04 09:14 | 39.77634 | -0.07850 | 15242 ft | 440 kts | 43° |
| 2026-05-04 09:15 | 39.79834 | -0.05042 | 15798 ft | 444 kts | 43° |
| 2026-05-04 09:15 | 39.82041 | -0.02214 | 16425 ft | 446 kts | 43° |
| 2026-05-04 09:15 | 39.84248 | 0.00635 | 16965 ft | 450 kts | 44° |
| 2026-05-04 09:15 | 39.86449 | 0.03589 | 17461 ft | 456 kts | 45° |
| 2026-05-04 09:17 | 40.04114 | 0.28381 | 21303 ft | 478 kts | 46° |
| 2026-05-04 09:18 | 40.06396 | 0.31557 | 21751 ft | 479 kts | 46° |
| 2026-05-04 09:18 | 40.08648 | 0.34699 | 22142 ft | 482 kts | 46° |
| 2026-05-04 09:18 | 40.10942 | 0.37913 | 22525 ft | 485 kts | 46° |
| 2026-05-04 09:18 | 40.13245 | 0.41154 | 22852 ft | 488 kts | 46° |
| 2026-05-04 09:19 | 40.15565 | 0.44418 | 23213 ft | 492 kts | 46° |
| 2026-05-04 09:19 | 40.17902 | 0.47699 | 23556 ft | 495 kts | 46° |
| 2026-05-04 09:19 | 40.20255 | 0.51002 | 23841 ft | 498 kts | 46° |
| 2026-05-04 09:19 | 40.22618 | 0.54327 | 24139 ft | 500 kts | 46° |
| 2026-05-04 09:20 | 40.24991 | 0.57675 | 24420 ft | 503 kts | 46° |
| 2026-05-04 09:20 | 40.27380 | 0.61046 | 24742 ft | 504 kts | 47° |
| 2026-05-04 09:20 | 40.29772 | 0.64421 | 25023 ft | 507 kts | 47° |
| 2026-05-04 09:20 | 40.32173 | 0.67816 | 25299 ft | 509 kts | 47° |
| 2026-05-04 09:21 | 40.34585 | 0.71234 | 25569 ft | 512 kts | 47° |
| 2026-05-04 09:21 | 40.37006 | 0.74672 | 25820 ft | 514 kts | 47° |
| 2026-05-04 09:21 | 40.39439 | 0.78128 | 26004 ft | 517 kts | 46° |
| 2026-05-04 09:21 | 40.41882 | 0.81603 | 26248 ft | 519 kts | 46° |
| 2026-05-04 09:22 | 40.44329 | 0.85085 | 26480 ft | 521 kts | 46° |
| 2026-05-04 09:22 | 40.46798 | 0.88604 | 26701 ft | 524 kts | 46° |
| 2026-05-04 09:22 | 40.49269 | 0.92131 | 26961 ft | 526 kts | 47° |
| 2026-05-04 09:22 | 40.51749 | 0.95674 | 27163 ft | 527 kts | 47° |
| 2026-05-04 09:23 | 40.54231 | 0.99227 | 27443 ft | 527 kts | 47° |
| 2026-05-04 09:23 | 40.56712 | 1.02782 | 27743 ft | 528 kts | 47° |
| 2026-05-04 09:23 | 40.59192 | 1.06343 | 28023 ft | 528 kts | 47° |
| 2026-05-04 09:23 | 40.61642 | 1.09868 | 28317 ft | 528 kts | 47° |
| 2026-05-04 09:25 | 40.78978 | 1.34870 | 30378 ft | 528 kts | 47° |
| 2026-05-04 09:25 | 40.81455 | 1.38451 | 30638 ft | 528 kts | 47° |
| 2026-05-04 09:26 | 40.83928 | 1.42037 | 30901 ft | 528 kts | 47° |
| 2026-05-04 09:26 | 40.86399 | 1.45626 | 31168 ft | 528 kts | 47° |
| 2026-05-04 09:26 | 40.88867 | 1.49217 | 31432 ft | 528 kts | 47° |
| 2026-05-04 09:26 | 40.91331 | 1.52810 | 31706 ft | 527 kts | 47° |
| 2026-05-04 09:27 | 40.93778 | 1.56383 | 31982 ft | 524 kts | 47° |
| 2026-05-04 09:27 | 40.96204 | 1.59930 | 32112 ft | 516 kts | 47° |
| 2026-05-04 09:27 | 40.98592 | 1.63424 | 32235 ft | 508 kts | 47° |
| 2026-05-04 09:27 | 41.00941 | 1.66864 | 32356 ft | 502 kts | 47° |
| 2026-05-04 09:28 | 41.03266 | 1.70272 | 32488 ft | 496 kts | 47° |
| 2026-05-04 09:28 | 41.05570 | 1.73650 | 32617 ft | 490 kts | 47° |
| 2026-05-04 09:28 | 41.07851 | 1.76997 | 32755 ft | 493 kts | 47° |
| 2026-05-04 09:28 | 41.10160 | 1.80389 | 32889 ft | 498 kts | 47° |
| 2026-05-04 09:29 | 41.12494 | 1.83820 | 33040 ft | 503 kts | 47° |
| 2026-05-04 09:29 | 41.14855 | 1.87294 | 33176 ft | 508 kts | 47° |
| 2026-05-04 09:29 | 41.17225 | 1.90787 | 33302 ft | 512 kts | 47° |
| 2026-05-04 09:29 | 41.19616 | 1.94320 | 33412 ft | 516 kts | 47° |
| 2026-05-04 09:30 | 41.22023 | 1.97880 | 33546 ft | 520 kts | 47° |
| 2026-05-04 09:30 | 41.24448 | 2.01471 | 33724 ft | 522 kts | 47° |
| 2026-05-04 09:30 | 41.26873 | 2.05065 | 33926 ft | 523 kts | 47° |
| 2026-05-04 09:30 | 41.29249 | 2.08746 | 33976 ft | 527 kts | 52° |
| 2026-05-04 09:31 | 41.32912 | 2.17091 | 34011 ft | 527 kts | 68° |
| 2026-05-04 09:31 | 41.35986 | 2.25963 | 33976 ft | 524 kts | 67° |
| 2026-05-04 09:32 | 41.39038 | 2.34715 | 33982 ft | 525 kts | 66° |
| 2026-05-04 09:34 | 41.51226 | 2.70165 | 33926 ft | 526 kts | 67° |
| 2026-05-04 09:34 | 41.54253 | 2.79044 | 33981 ft | 525 kts | 67° |
| 2026-05-04 09:35 | 41.57269 | 2.87918 | 33973 ft | 524 kts | 67° |
| 2026-05-04 09:35 | 41.60285 | 2.96781 | 33977 ft | 524 kts | 67° |
| 2026-05-04 09:37 | 41.72217 | 3.32305 | 33961 ft | 523 kts | 67° |
| 2026-05-04 09:38 | 41.75171 | 3.41136 | 33988 ft | 523 kts | 67° |
| 2026-05-04 09:38 | 41.78135 | 3.50027 | 33982 ft | 522 kts | 68° |
| 2026-05-04 09:39 | 41.81082 | 3.58926 | 33983 ft | 522 kts | 68° |
| 2026-05-04 09:39 | 41.84024 | 3.67830 | 33986 ft | 522 kts | 68° |
| 2026-05-04 09:40 | 41.86463 | 3.75236 | 33982 ft | 522 kts | 68° |
| 2026-05-04 09:40 | 41.89401 | 3.84196 | 33959 ft | 521 kts | 68° |
| 2026-05-04 09:42 | 42.00982 | 4.19773 | 33982 ft | 519 kts | 68° |
| 2026-05-04 09:43 | 42.03850 | 4.28661 | 33998 ft | 518 kts | 68° |
| 2026-05-04 09:43 | 42.06842 | 4.37495 | 34001 ft | 519 kts | 61° |
| 2026-05-04 09:44 | 42.11164 | 4.45237 | 34026 ft | 517 kts | 43° |
| 2026-05-04 09:46 | 42.32424 | 4.70986 | 34035 ft | 513 kts | 40° |
| 2026-05-04 09:46 | 42.37732 | 4.77420 | 34037 ft | 512 kts | 40° |
| 2026-05-04 09:47 | 42.43026 | 4.83851 | 34030 ft | 512 kts | 40° |
| 2026-05-04 09:49 | 42.64137 | 5.09689 | 34052 ft | 509 kts | 40° |
| 2026-05-04 09:51 | 42.82487 | 5.32350 | 34051 ft | 509 kts | 40° |
| 2026-05-04 09:51 | 42.87731 | 5.38857 | 34047 ft | 509 kts | 40° |
| 2026-05-04 09:52 | 42.92952 | 5.45345 | 34064 ft | 508 kts | 40° |
| 2026-05-04 09:52 | 42.98162 | 5.51848 | 34068 ft | 507 kts | 40° |
| 2026-05-04 09:53 | 43.03333 | 5.58313 | 34053 ft | 506 kts | 40° |
| 2026-05-04 09:53 | 43.08526 | 5.64820 | 34057 ft | 506 kts | 40° |
| 2026-05-04 09:54 | 43.13706 | 5.71329 | 34053 ft | 506 kts | 40° |
| 2026-05-04 09:54 | 43.18879 | 5.77847 | 34075 ft | 505 kts | 40° |
| 2026-05-04 09:55 | 43.24039 | 5.84363 | 34079 ft | 504 kts | 40° |
| 2026-05-04 09:55 | 43.29190 | 5.90877 | 34093 ft | 503 kts | 41° |
| 2026-05-04 09:56 | 43.34338 | 5.97374 | 34070 ft | 501 kts | 37° |
| 2026-05-04 09:56 | 43.40216 | 6.02349 | 34078 ft | 494 kts | 19° |
| 2026-05-04 09:57 | 43.46746 | 6.04750 | 34066 ft | 482 kts | 1° |
| 2026-05-04 09:57 | 43.53413 | 6.05428 | 34067 ft | 480 kts | 359° |
| 2026-05-04 09:58 | 43.60094 | 6.06111 | 34066 ft | 481 kts | 359° |
| 2026-05-04 09:58 | 43.66768 | 6.06791 | 34064 ft | 481 kts | 359° |
| 2026-05-04 10:00 | 43.89271 | 6.15900 | 34109 ft | 488 kts | 14° |
| 2026-05-04 10:00 | 43.92547 | 6.16962 | 34113 ft | 482 kts | 6° |
| 2026-05-04 10:02 | 44.15646 | 6.22960 | 34287 ft | 483 kts | 6° |
| 2026-05-04 10:04 | 44.38677 | 6.29395 | 35701 ft | 483 kts | 8° |
| 2026-05-04 10:04 | 44.41975 | 6.30367 | 35902 ft | 483 kts | 8° |
| 2026-05-04 10:04 | 44.45256 | 6.31326 | 36092 ft | 483 kts | 8° |
| 2026-05-04 10:05 | 44.51863 | 6.33238 | 36125 ft | 485 kts | 8° |
| 2026-05-04 10:05 | 44.58475 | 6.35153 | 36126 ft | 485 kts | 8° |
| 2026-05-04 10:06 | 44.65085 | 6.37074 | 36126 ft | 485 kts | 8° |
| 2026-05-04 10:06 | 44.71696 | 6.39016 | 36126 ft | 485 kts | 8° |
| 2026-05-04 10:08 | 44.94829 | 6.45803 | 36141 ft | 485 kts | 8° |
| 2026-05-04 10:08 | 45.01431 | 6.47756 | 36150 ft | 486 kts | 8° |
| 2026-05-04 10:09 | 45.08003 | 6.49701 | 36144 ft | 485 kts | 8° |
| 2026-05-04 10:09 | 45.14623 | 6.51674 | 36139 ft | 486 kts | 8° |
| 2026-05-04 10:10 | 45.21277 | 6.53659 | 36141 ft | 486 kts | 8° |
| 2026-05-04 10:10 | 45.27908 | 6.55624 | 36124 ft | 486 kts | 8° |
| 2026-05-04 10:11 | 45.34527 | 6.57589 | 36125 ft | 486 kts | 8° |
| 2026-05-04 10:11 | 45.41149 | 6.59577 | 36116 ft | 486 kts | 9° |
| 2026-05-04 10:12 | 45.47770 | 6.61568 | 36109 ft | 486 kts | 9° |
| 2026-05-04 10:12 | 45.54330 | 6.63614 | 36102 ft | 485 kts | 10° |
| 2026-05-04 10:13 | 45.60904 | 6.65761 | 36107 ft | 484 kts | 10° |
| 2026-05-04 10:13 | 45.67475 | 6.67904 | 36098 ft | 483 kts | 10° |
| 2026-05-04 10:14 | 45.74025 | 6.70026 | 36090 ft | 482 kts | 10° |
| 2026-05-04 10:16 | 45.96002 | 6.82086 | 36067 ft | 486 kts | 22° |
| 2026-05-04 10:16 | 45.99081 | 6.84096 | 36064 ft | 486 kts | 22° |
| 2026-05-04 10:16 | 46.05238 | 6.88111 | 36054 ft | 486 kts | 22° |
| 2026-05-04 10:17 | 46.11406 | 6.92164 | 36050 ft | 487 kts | 22° |
| 2026-05-04 10:19 | 46.36033 | 7.08463 | 36040 ft | 486 kts | 22° |
| 2026-05-04 10:19 | 46.42189 | 7.12564 | 36030 ft | 486 kts | 23° |
| 2026-05-04 10:20 | 46.48290 | 7.16650 | 36028 ft | 486 kts | 23° |
| 2026-05-04 10:20 | 46.54467 | 7.20787 | 36029 ft | 486 kts | 23° |
| 2026-05-04 10:21 | 46.60569 | 7.24882 | 36028 ft | 486 kts | 23° |
| 2026-05-04 10:21 | 46.66707 | 7.29006 | 36029 ft | 486 kts | 23° |
| 2026-05-04 10:22 | 46.75902 | 7.35204 | 36039 ft | 485 kts | 23° |
| 2026-05-04 10:23 | 46.81974 | 7.39465 | 36046 ft | 485 kts | 29° |
| 2026-05-04 10:25 | 46.99179 | 7.67417 | 36024 ft | 485 kts | 51° |
| 2026-05-04 10:25 | 47.03378 | 7.75182 | 36017 ft | 486 kts | 52° |
| 2026-05-04 10:26 | 47.07569 | 7.82951 | 36012 ft | 486 kts | 52° |
| 2026-05-04 10:26 | 47.11750 | 7.90741 | 36030 ft | 486 kts | 52° |
| 2026-05-04 10:27 | 47.15598 | 7.98894 | 36019 ft | 486 kts | 59° |
| 2026-05-04 10:27 | 47.19194 | 8.07321 | 36017 ft | 486 kts | 58° |
| 2026-05-04 10:28 | 47.22793 | 8.15754 | 36018 ft | 487 kts | 59° |
| 2026-05-04 10:28 | 47.26383 | 8.24215 | 36023 ft | 487 kts | 59° |
| 2026-05-04 10:29 | 47.29978 | 8.32596 | 36019 ft | 487 kts | 54° |
| 2026-05-04 10:29 | 47.34363 | 8.40179 | 35620 ft | 485 kts | 48° |
| 2026-05-04 10:29 | 47.36542 | 8.43983 | 34777 ft | 487 kts | 51° |
| 2026-05-04 10:30 | 47.38619 | 8.47942 | 34130 ft | 490 kts | 53° |
| 2026-05-04 10:30 | 47.40631 | 8.52017 | 33478 ft | 492 kts | 54° |
| 2026-05-04 10:30 | 47.42610 | 8.56141 | 32803 ft | 494 kts | 55° |
| 2026-05-04 10:30 | 47.44595 | 8.60287 | 32141 ft | 494 kts | 55° |
| 2026-05-04 10:31 | 47.46601 | 8.64415 | 31501 ft | 495 kts | 54° |
| 2026-05-04 10:31 | 47.48637 | 8.68529 | 30878 ft | 496 kts | 54° |
| 2026-05-04 10:32 | 47.61025 | 8.93146 | 26957 ft | 498 kts | 54° |
| 2026-05-04 10:33 | 47.63090 | 8.97280 | 26438 ft | 498 kts | 54° |
| 2026-05-04 10:33 | 47.65151 | 9.01415 | 25931 ft | 499 kts | 54° |
| 2026-05-04 10:33 | 47.67212 | 9.05560 | 25345 ft | 499 kts | 54° |
| 2026-05-04 10:33 | 47.69278 | 9.09706 | 24747 ft | 500 kts | 53° |
| 2026-05-04 10:34 | 47.71726 | 9.13353 | 24093 ft | 500 kts | 36° |
| 2026-05-04 10:34 | 47.74796 | 9.15697 | 23357 ft | 495 kts | 17° |
| 2026-05-04 10:34 | 47.78152 | 9.16702 | 22561 ft | 491 kts | 7° |
| 2026-05-04 10:34 | 47.81517 | 9.17454 | 21771 ft | 487 kts | 8° |
| 2026-05-04 10:35 | 47.84833 | 9.18325 | 21005 ft | 482 kts | 10° |
| 2026-05-04 10:35 | 47.88102 | 9.19346 | 20254 ft | 478 kts | 12° |
| 2026-05-04 10:35 | 47.91327 | 9.20463 | 19532 ft | 474 kts | 13° |
| 2026-05-04 10:35 | 47.94483 | 9.21600 | 18822 ft | 470 kts | 13° |
| 2026-05-04 10:36 | 47.97648 | 9.22735 | 18083 ft | 466 kts | 13° |
| 2026-05-04 10:36 | 48.00829 | 9.23845 | 17285 ft | 462 kts | 12° |
| 2026-05-04 10:36 | 48.03949 | 9.24900 | 16514 ft | 457 kts | 12° |
| 2026-05-04 10:36 | 48.07039 | 9.25920 | 15760 ft | 452 kts | 12° |
| 2026-05-04 10:37 | 48.10065 | 9.26915 | 15057 ft | 448 kts | 12° |
| 2026-05-04 10:37 | 48.13079 | 9.27911 | 14528 ft | 439 kts | 12° |
| 2026-05-04 10:37 | 48.16037 | 9.28891 | 13969 ft | 432 kts | 12° |
| 2026-05-04 10:37 | 48.18950 | 9.29861 | 13325 ft | 427 kts | 12° |
| 2026-05-04 10:39 | 48.34556 | 9.35310 | 12262 ft | 338 kts | 13° |
| 2026-05-04 10:39 | 48.36783 | 9.36170 | 12062 ft | 325 kts | 18° |
| 2026-05-04 10:39 | 48.38858 | 9.37431 | 11664 ft | 319 kts | 25° |
| 2026-05-04 10:40 | 48.40864 | 9.38796 | 11290 ft | 314 kts | 25° |
| 2026-05-04 10:40 | 48.42837 | 9.40138 | 10903 ft | 309 kts | 25° |
| 2026-05-04 10:40 | 48.44791 | 9.41464 | 10462 ft | 307 kts | 25° |
| 2026-05-04 10:40 | 48.46727 | 9.42780 | 10025 ft | 304 kts | 25° |
| 2026-05-04 10:41 | 48.48655 | 9.44090 | 9564 ft | 302 kts | 25° |
| 2026-05-04 10:41 | 48.50555 | 9.45382 | 9111 ft | 299 kts | 25° |
| 2026-05-04 10:41 | 48.52441 | 9.46666 | 8675 ft | 296 kts | 25° |
| 2026-05-04 10:41 | 48.54305 | 9.47938 | 8225 ft | 292 kts | 25° |
| 2026-05-04 10:42 | 48.56153 | 9.49197 | 7793 ft | 289 kts | 25° |
| 2026-05-04 10:42 | 48.57976 | 9.50440 | 7345 ft | 286 kts | 25° |
| 2026-05-04 10:42 | 48.59780 | 9.51671 | 6888 ft | 283 kts | 25° |
| 2026-05-04 10:42 | 48.61529 | 9.52865 | 6582 ft | 276 kts | 24° |
| 2026-05-04 10:43 | 48.63262 | 9.54050 | 6330 ft | 270 kts | 24° |
| 2026-05-04 10:44 | 48.74428 | 9.57666 | 4686 ft | 245 kts | 297° |
| 2026-05-04 10:45 | 48.74877 | 9.55259 | 4557 ft | 237 kts | 272° |
| 2026-05-04 10:45 | 48.74707 | 9.52753 | 4357 ft | 245 kts | 258° |
| 2026-05-04 10:45 | 48.74269 | 9.50273 | 4206 ft | 238 kts | 253° |
| 2026-05-04 10:45 | 48.73789 | 9.47950 | 4122 ft | 225 kts | 251° |
| 2026-05-04 10:46 | 48.73360 | 9.45694 | 3902 ft | 219 kts | 254° |
| 2026-05-04 10:46 | 48.72962 | 9.43507 | 3773 ft | 210 kts | 255° |
| 2026-05-04 10:46 | 48.72593 | 9.41388 | 3528 ft | 206 kts | 256° |
| 2026-05-04 10:46 | 48.72211 | 9.39318 | 3295 ft | 202 kts | 255° |
| 2026-05-04 10:47 | 48.71829 | 9.37319 | 2979 ft | 195 kts | 254° |
| 2026-05-04 10:47 | 48.71469 | 9.35407 | 2678 ft | 182 kts | 255° |
| 2026-05-04 10:47 | 48.71139 | 9.33632 | 2399 ft | 166 kts | 256° |
| 2026-05-04 10:47 | 48.70845 | 9.32019 | 2231 ft | 153 kts | 256° |
| 2026-05-04 10:49 | 48.68940 | 9.21943 | 1246 ft | 81 kts | 254° |
| 2026-05-04 10:49 | 48.68810 | 9.21258 | 1262 ft | 60 kts | 254° |
| 2026-05-04 10:50 | 48.68707 | 9.20715 | 1270 ft | 44 kts | 254° |
| 2026-05-04 10:51 | 48.68855 | 9.19889 | 1300 ft | 12 kts | 341° |
| 2026-05-04 10:52 | 48.68888 | 9.19821 | 1304 ft | 6 kts | 272° |
| 2026-05-04 10:52 | 48.68880 | 9.19767 | 1306 ft | 7 kts | 254° |
| 2026-05-04 10:52 | 48.68858 | 9.19653 | 1309 ft | 13 kts | 253° |
| 2026-05-04 10:54 | 48.68884 | 9.19359 | 1315 ft | 0 kts | 344° |